Sterling, IL

7:52 PM CDT on March 30, 2017 (GMT -0500)
Whiteside County-Bittorf

Weather History for KSQI - November, 2011

Change the Weather History Date:

Monday, November 21, 2011

  Actual Average Record
Temperature  
Mean Temperature 40 °F -  
Max Temperature 51 °F 43 °F 59 °F (2012)
Min Temperature 28 °F 27 °F 3 °F (2014)
Degree Days  
Heating Degree Days 26    
Moisture  
Dew Point 32 °F    
Average Humidity 75    
Maximum Humidity 93    
Minimum Humidity 58    
Precipitation  
Precipitation 0.00 in - - ()
Sea Level Pressure  
Sea Level Pressure 30.26 in    
Wind  
Wind Speed 9 mph (ENE)    
Max Wind Speed 16 mph    
Max Gust Speed 20 mph    
Visibility 9 miles    
Events      
Averages and records for this station are not official NWS values.
T = Trace of Precipitation, MM = Missing Value Source: NWS Daily Summary

Daily Weather History Graph

Daily Weather History Graph

Search for Another Location

Airport or City:

Trip Planner

Search our weather history database for the weather conditions in past years. The results will help you decide how hot, cold, wet, or windy it might be!

Date:

Astronomy

Nov. 21, 2011 Rise Set
Actual Time 6:54 AM CST 4:33 PM CST
Civil Twilight 6:24 AM CST 5:04 PM CST
Nautical Twilight 5:50 AM CST 5:38 PM CST
Astronomical Twilight 5:17 AM CST 6:11 PM CST
Moon 2:30 AM CST (11/21) 1:58 PM CST (11/21)
Length of Visible Light 10h 39m
Length of Day
9h 38m
Waning Crescent, 17% of the Moon is Illuminated
Nov 21
Waning Crescent
Nov 25
New
Dec 2
First Quarter
Dec 10
Full
Dec 17
Last Quarter

Hourly Weather History & Observations

Time (CST) Temp. Windchill Dew Point Humidity Pressure Visibility Wind Dir Wind Speed Gust Speed Precip Events Conditions
12:15 AM 33.8 °F 27.7 °F 30.2 °F 87% 30.30 in 10.0 mi NE 6.9 mph - N/A   Partly Cloudy
12:35 AM 33.8 °F 27.7 °F 28.4 °F 81% 30.30 in 10.0 mi NE 6.9 mph - N/A   Partly Cloudy
12:55 AM 33.8 °F 27.0 °F 28.4 °F 81% 30.30 in 10.0 mi NE 8.1 mph - N/A   Clear
1:15 AM 33.8 °F 27.7 °F 26.6 °F 75% 30.29 in 10.0 mi NE 6.9 mph - N/A   Clear
1:35 AM 33.8 °F 28.6 °F 26.6 °F 75% 30.29 in 10.0 mi NE 5.8 mph - N/A   Scattered Clouds
1:55 AM 33.8 °F 28.6 °F 28.4 °F 81% 30.29 in 10.0 mi NE 5.8 mph - N/A   Overcast
2:35 AM 33.8 °F 30.8 °F 26.6 °F 75% 30.30 in 10.0 mi North 3.5 mph - N/A   Overcast
2:55 AM 33.8 °F 29.6 °F 28.4 °F 81% 30.30 in 10.0 mi North 4.6 mph - N/A   Overcast
3:15 AM 32.0 °F 25.6 °F 26.6 °F 80% 30.30 in 10.0 mi NNE 6.9 mph - N/A   Mostly Cloudy
3:35 AM 30.2 °F 23.4 °F 26.6 °F 86% 30.29 in 10.0 mi NNE 6.9 mph - N/A   Clear
3:55 AM 30.2 °F 23.4 °F 26.6 °F 86% 30.28 in 10.0 mi NNE 6.9 mph - N/A   Clear
4:15 AM 30.2 °F 22.6 °F 26.6 °F 86% 30.29 in 10.0 mi NNE 8.1 mph - N/A   Clear
4:35 AM 30.2 °F 22.6 °F 26.6 °F 86% 30.28 in 10.0 mi NNE 8.1 mph - N/A   Clear
4:55 AM 30.2 °F 21.9 °F 26.6 °F 86% 30.29 in 10.0 mi NNE 9.2 mph - N/A   Clear
5:15 AM 30.2 °F 23.4 °F 26.6 °F 86% 30.29 in 10.0 mi NE 6.9 mph - N/A   Clear
5:35 AM 30.2 °F 23.4 °F 26.6 °F 86% 30.30 in 10.0 mi NE 6.9 mph - N/A   Clear
5:55 AM 30.2 °F 23.4 °F 24.8 °F 80% 30.30 in 10.0 mi NE 6.9 mph - N/A   Clear
6:15 AM 28.4 °F 22.2 °F 24.8 °F 86% 30.30 in 10.0 mi ENE 5.8 mph - N/A   Clear
6:35 AM 28.4 °F 22.2 °F 26.6 °F 93% 30.30 in 10.0 mi ENE 5.8 mph - N/A   Clear
6:55 AM 28.4 °F 22.2 °F 24.8 °F 86% 30.30 in 10.0 mi East 5.8 mph - N/A   Clear
7:15 AM 28.4 °F 21.2 °F 26.6 °F 93% 30.30 in 10.0 mi NE 6.9 mph - N/A   Clear
7:35 AM 32.0 °F 25.6 °F 28.4 °F 87% 30.31 in 10.0 mi NE 6.9 mph - N/A   Clear
7:55 AM 33.8 °F 27.0 °F 28.4 °F 81% 30.31 in 10.0 mi NE 8.1 mph - N/A   Clear
8:15 AM 35.6 °F 27.1 °F 30.2 °F 81% 30.31 in 10.0 mi NE 12.7 mph - N/A   Clear
8:35 AM 37.4 °F 29.3 °F 30.2 °F 75% 30.31 in 10.0 mi ENE 12.7 mph - N/A   Clear
8:55 AM 39.2 °F 31.2 °F 32.0 °F 75% 30.31 in 10.0 mi ENE 13.8 mph 19.6 mph N/A   Clear
9:15 AM 39.2 °F 32.0 °F 33.8 °F 81% 30.31 in 10.0 mi East 11.5 mph - N/A   Clear
9:35 AM 42.8 °F 35.8 °F 33.8 °F 70% 30.31 in 10.0 mi East 13.8 mph - N/A   Clear
9:55 AM 42.8 °F 35.1 °F 33.8 °F 70% 30.31 in 10.0 mi East 16.1 mph - N/A   Clear
10:15 AM 44.6 °F 37.8 °F 35.6 °F 71% 30.30 in 10.0 mi ENE 15.0 mph - N/A   Clear
10:35 AM 44.6 °F 37.4 °F 35.6 °F 71% 30.29 in 10.0 mi East 16.1 mph - N/A   Clear
10:55 AM 46.4 °F 40.7 °F 35.6 °F 66% 30.28 in 10.0 mi East 12.7 mph - N/A   Clear
11:15 AM 48.2 °F - 35.6 °F 62% 30.27 in 10.0 mi ENE 12.7 mph - N/A   Clear
11:35 AM 48.2 °F - 37.4 °F 66% 30.26 in 10.0 mi ENE 12.7 mph - N/A   Clear
12:15 PM 50.0 °F - 37.4 °F 62% 30.24 in 10.0 mi East 11.5 mph 16.1 mph N/A   Clear
12:35 PM 51.8 °F - 37.4 °F 58% 30.24 in 10.0 mi ENE 10.4 mph - N/A   Clear
12:55 PM 50.0 °F - 35.6 °F 58% 30.22 in 10.0 mi East 10.4 mph 16.1 mph N/A   Clear
1:15 PM 50.0 °F - 37.4 °F 62% 30.21 in 10.0 mi East 10.4 mph - N/A   Clear
1:35 PM 51.8 °F - 37.4 °F 58% 30.21 in 10.0 mi East 11.5 mph - N/A   Clear
1:55 PM 51.8 °F - 37.4 °F 58% 30.21 in 10.0 mi ENE 11.5 mph - N/A   Clear
2:15 PM 51.8 °F - 37.4 °F 58% 30.21 in 10.0 mi ENE 10.4 mph - N/A   Clear
2:35 PM 50.0 °F - 37.4 °F 62% 30.20 in 8.0 mi ENE 12.7 mph - N/A   Clear
2:55 PM 48.2 °F - 35.6 °F 62% 30.20 in 9.0 mi East 11.5 mph - N/A   Clear
3:15 PM 48.2 °F - 35.6 °F 62% 30.20 in 10.0 mi East 11.5 mph - N/A   Clear
3:35 PM 48.2 °F - 35.6 °F 62% 30.19 in 8.0 mi ENE 12.7 mph - N/A   Clear
3:55 PM 46.4 °F 41.1 °F 35.6 °F 66% 30.19 in 6.0 mi ENE 11.5 mph - N/A   Clear
4:15 PM 46.4 °F 41.1 °F 35.6 °F 66% 30.20 in 7.0 mi ENE 11.5 mph - N/A   Clear
4:55 PM 42.8 °F 37.5 °F 33.8 °F 70% 30.20 in 8.0 mi ENE 9.2 mph - N/A   Clear
5:15 PM 42.8 °F 36.6 °F 33.8 °F 70% 30.21 in 10.0 mi ENE 11.5 mph - N/A   Clear
5:35 PM 42.8 °F 36.6 °F 33.8 °F 70% 30.21 in 8.0 mi ENE 11.5 mph - N/A   Clear
5:55 PM 41.0 °F 33.5 °F 33.8 °F 76% 30.20 in 8.0 mi ENE 13.8 mph - N/A   Clear
6:15 PM 41.0 °F 33.5 °F 33.8 °F 76% 30.21 in 8.0 mi ENE 13.8 mph - N/A   Clear
6:35 PM 39.2 °F 31.6 °F 33.8 °F 81% 30.22 in 9.0 mi ENE 12.7 mph - N/A   Clear
6:55 PM 39.2 °F 32.0 °F 32.0 °F 75% 30.22 in 8.0 mi ENE 11.5 mph - N/A   Clear
7:15 PM 39.2 °F 31.2 °F 32.0 °F 75% 30.20 in 7.0 mi ENE 13.8 mph - N/A   Clear
7:35 PM 39.2 °F 32.0 °F 32.0 °F 75% 30.20 in 7.0 mi ENE 11.5 mph - N/A   Clear
7:55 PM 37.4 °F 29.8 °F 32.0 °F 81% 30.19 in 6.0 mi ENE 11.5 mph - N/A   Clear
8:15 PM 37.4 °F 30.3 °F 32.0 °F 81% 30.18 in 5.0 mi ENE 10.4 mph - N/A   Clear
8:35 PM 37.4 °F 30.3 °F 30.2 °F 75% 30.18 in 5.0 mi ENE 10.4 mph - N/A   Clear
8:55 PM 37.4 °F 29.8 °F 30.2 °F 75% 30.19 in 6.0 mi East 11.5 mph - N/A   Clear
9:15 PM 35.6 °F 28.6 °F 30.2 °F 81% 30.18 in 7.0 mi East 9.2 mph - N/A   Clear
9:35 PM 35.6 °F 28.6 °F 30.2 °F 81% 30.19 in 6.0 mi East 9.2 mph - N/A   Clear
9:55 PM 35.6 °F 28.6 °F 30.2 °F 81% 30.18 in 5.0 mi ENE 9.2 mph - N/A   Clear
10:15 PM 35.6 °F 28.6 °F 30.2 °F 81% 30.17 in 6.0 mi ENE 9.2 mph - N/A   Clear
10:35 PM 37.4 °F 31.4 °F 32.0 °F 81% 30.19 in 5.0 mi ENE 8.1 mph - N/A   Mostly Cloudy
10:55 PM 37.4 °F 32.1 °F 33.8 °F 87% 30.20 in 5.0 mi East 6.9 mph - N/A   Overcast
11:15 PM 37.4 °F 32.8 °F 33.8 °F 87% 30.20 in 6.0 mi East 5.8 mph - N/A   Overcast
11:35 PM 37.4 °F 33.8 °F 33.8 °F 87% 30.21 in 6.0 mi ENE 4.6 mph - N/A   Overcast
11:55 PM 37.4 °F 32.8 °F 33.8 °F 87% 30.20 in 7.0 mi NE 5.8 mph - N/A   Overcast